Manalapan, Florida
Current Conditions -  °F | °C
As of 11:53 PM on Saturday 22 Nov 2014 (Local Time) from KPBI Reporting Station
Light Rain Light Rain  
Wind Chill: 75°   Ceiling: 1500
Heat Index: 75°   Visibility: 10mi
Dew Point: 72°   Wind: 24mph
Humidity: 90%   Direction: 100°E
Pressure: 30.07"   Gusts: 36mph
Location:  26.5758°N, 80.0835°W
Report Text: KPBI 230453Z 10021G31KT 10SM -RA FEW010 BKN015 OVC023 24/22 A3007 RMK AO2 PK WND 07031/0450 SLP183 P0008 T02390222 402720228
Loading
Personal Weather Stations






























Interactive Weather Map New forecast layout! Learn more

10-Day Weather Forecast

Advertisements
Track Severe Weather on mobile